Time;durP1;ratioP1;P1;durP2;ratioP2;P2;SDS_P1;SDS_P2;PMS_P1;PMS_P2;Temp;Humidity;BMP_temperature;BMP_pressure;BME280_temperature;BME280_humidity;BME280_pressure;Samples;Min_cycle;Max_cycle;Signal;HPM_P1;HPM_P2
2023/10/21 00:00:39;;;;;;;28.40;16.30;;;;;;;;;;5012441;28;20030;-71
2023/10/21 00:03:04;;;;;;;23.13;14.10;;;;;;;;;;5012008;28;20024;-70
2023/10/21 00:05:29;;;;;;;25.53;13.97;;;;;;;;;;5012196;28;20106;-68
2023/10/21 00:07:54;;;;;;;25.40;15.13;;;;;;;;;;5012192;28;20056;-68
2023/10/21 00:10:19;;;;;;;27.30;15.30;;;;;;;;;;5011875;28;20032;-70
2023/10/21 00:12:45;;;;;;;28.77;15.33;;;;;;;;;;5011752;28;20091;-70
2023/10/21 00:15:10;;;;;;;31.43;17.27;;;;;;;;;;5012039;28;20079;-70
2023/10/21 00:17:35;;;;;;;26.43;16.03;;;;;;;;;;5010838;28;20048;-70
2023/10/21 00:20:03;;;;;;;27.70;15.47;;;;;;;;;;5011315;28;20052;-69
2023/10/21 00:22:28;;;;;;;29.63;15.57;;;;;;;;;;5011768;28;20105;-70
2023/10/21 00:24:53;;;;;;;29.27;16.80;;;;;;;;;;5011573;28;20052;-69
2023/10/21 00:27:19;;;;;;;34.47;18.20;;;;;;;;;;5009285;28;20033;-71
2023/10/21 00:29:44;;;;;;;28.97;16.00;;;;;;;;;;5007973;28;20034;-68
2023/10/21 00:32:09;;;;;;;30.03;14.70;;;;;;;;;;5011897;28;20097;-69
2023/10/21 00:34:38;;;;;;;26.63;15.83;;;;;;;;;;5011503;28;20460;-69
2023/10/21 00:37:04;;;;;;;29.00;17.07;;;;;;;;;;5010603;28;20010;-70
2023/10/21 00:39:30;;;;;;;36.43;17.17;;;;;;;;;;5011604;28;20104;-69
2023/10/21 00:41:55;;;;;;;30.13;17.40;;;;;;;;;;5011631;28;20022;-69
2023/10/21 00:44:20;;;;;;;27.43;16.27;;;;;;;;;;5011677;28;20361;-69
2023/10/21 00:46:46;;;;;;;28.30;14.03;;;;;;;;;;5011487;28;20393;-69
2023/10/21 00:49:12;;;;;;;29.23;14.90;;;;;;;;;;5011058;28;21288;-69
2023/10/21 00:51:39;;;;;;;33.00;17.17;;;;;;;;;;5011553;28;20078;-71
2023/10/21 00:54:05;;;;;;;28.00;15.93;;;;;;;;;;5011164;28;20033;-69
2023/10/21 00:56:30;;;;;;;31.67;17.10;;;;;;;;;;5011504;28;20388;-70
2023/10/21 00:58:55;;;;;;;31.43;15.97;;;;;;;;;;5010775;28;20014;-69
2023/10/21 01:04:24;;;;;;;28.60;14.67;;;;;;;;;;5011229;28;20017;-64
2023/10/21 01:06:49;;;;;;;31.77;16.17;;;;;;;;;;5011352;28;20464;-63
2023/10/21 01:09:15;;;;;;;34.37;18.00;;;;;;;;;;5010891;28;20044;-63
2023/10/21 01:11:40;;;;;;;34.10;19.10;;;;;;;;;;5011222;28;20127;-65
2023/10/21 01:14:06;;;;;;;31.50;16.70;;;;;;;;;;5011144;28;20060;-62
2023/10/21 01:16:31;;;;;;;32.80;17.00;;;;;;;;;;5010847;28;20018;-63
2023/10/21 01:18:57;;;;;;;32.00;15.83;;;;;;;;;;5012469;28;20038;-63
2023/10/21 01:21:22;;;;;;;38.90;18.40;;;;;;;;;;5027264;28;20102;-64
2023/10/21 01:23:47;;;;;;;32.03;15.50;;;;;;;;;;5010507;28;20067;-63
2023/10/21 01:26:12;;;;;;;33.57;17.03;;;;;;;;;;5010695;28;20014;-63
2023/10/21 01:28:38;;;;;;;27.13;13.17;;;;;;;;;;5010786;28;20174;-62
2023/10/21 01:31:03;;;;;;;32.70;15.23;;;;;;;;;;5010187;28;20053;-63
2023/10/21 01:33:29;;;;;;;37.57;17.70;;;;;;;;;;5010677;28;20014;-62
2023/10/21 01:35:54;;;;;;;38.20;18.97;;;;;;;;;;5011912;28;20044;-64
2023/10/21 01:38:19;;;;;;;34.80;16.93;;;;;;;;;;5011160;28;20025;-64
2023/10/21 01:40:45;;;;;;;31.17;14.10;;;;;;;;;;5013001;28;20032;-61
2023/10/21 01:43:10;;;;;;;47.53;18.37;;;;;;;;;;5010579;28;20026;-63
2023/10/21 01:45:36;;;;;;;38.23;18.30;;;;;;;;;;5010649;28;20457;-63
2023/10/21 01:48:01;;;;;;;42.97;18.67;;;;;;;;;;5011865;28;20087;-63
2023/10/21 01:50:28;;;;;;;40.07;15.93;;;;;;;;;;5010651;28;20018;-62
2023/10/21 01:52:54;;;;;;;44.33;16.53;;;;;;;;;;5011113;28;20033;-64
2023/10/21 01:55:19;;;;;;;59.23;18.57;;;;;;;;;;5010615;28;20108;-64
2023/10/21 01:57:44;;;;;;;36.53;15.63;;;;;;;;;;5010543;28;20113;-63
2023/10/21 02:00:10;;;;;;;38.60;15.20;;;;;;;;;;5010569;28;20021;-63
2023/10/21 02:02:36;;;;;;;28.97;12.40;;;;;;;;;;5006347;28;20021;-64
2023/10/21 02:05:01;;;;;;;52.60;17.50;;;;;;;;;;5010382;28;20017;-63
2023/10/21 02:07:26;;;;;;;38.57;15.10;;;;;;;;;;5010432;28;20134;-63
2023/10/21 02:09:51;;;;;;;38.67;14.33;;;;;;;;;;5010611;28;20113;-64
2023/10/21 02:12:17;;;;;;;35.77;15.23;;;;;;;;;;5009910;28;20025;-63
2023/10/21 02:14:42;;;;;;;37.97;15.30;;;;;;;;;;5009805;28;20033;-63
2023/10/21 02:17:07;;;;;;;38.47;16.13;;;;;;;;;;5009940;28;20022;-64
2023/10/21 02:19:32;;;;;;;48.20;16.57;;;;;;;;;;5010907;28;20025;-65
2023/10/21 02:21:58;;;;;;;54.93;18.07;;;;;;;;;;5013011;28;20026;-62
2023/10/21 02:24:23;;;;;;;44.17;15.30;;;;;;;;;;5010024;28;20026;-63
2023/10/21 02:26:49;;;;;;;30.27;12.33;;;;;;;;;;5010282;28;20022;-62
2023/10/21 02:29:15;;;;;;;46.30;17.07;;;;;;;;;;5001226;28;20496;-65
2023/10/21 02:31:40;;;;;;;31.50;13.07;;;;;;;;;;5010199;28;20057;-63
2023/10/21 02:34:05;;;;;;;40.37;14.73;;;;;;;;;;5009600;28;20034;-63
2023/10/21 02:36:31;;;;;;;48.23;18.23;;;;;;;;;;5011155;28;20030;-65
2023/10/21 02:38:56;;;;;;;45.33;16.53;;;;;;;;;;5010192;28;20396;-65
2023/10/21 02:41:21;;;;;;;43.40;15.23;;;;;;;;;;5010220;28;20400;-62
2023/10/21 02:43:47;;;;;;;38.97;15.27;;;;;;;;;;5010817;28;20022;-63
2023/10/21 02:46:13;;;;;;;49.63;17.50;;;;;;;;;;5009883;28;20033;-65
2023/10/21 02:48:43;;;;;;;39.53;14.90;;;;;;;;;;5010129;28;20038;-64
2023/10/21 02:51:12;;;;;;;55.17;17.67;;;;;;;;;;5009193;28;21136;-65
2023/10/21 02:53:38;;;;;;;37.27;15.07;;;;;;;;;;5010765;28;20045;-62
2023/10/21 02:56:05;;;;;;;44.70;16.93;;;;;;;;;;5009654;28;20026;-64
2023/10/21 02:58:30;;;;;;;44.77;16.60;;;;;;;;;;5009740;28;20388;-64
2023/10/21 03:00:55;;;;;;;47.90;17.80;;;;;;;;;;5013180;28;20022;-64
2023/10/21 03:03:21;;;;;;;59.10;17.57;;;;;;;;;;5012992;28;20016;-64
2023/10/21 03:05:46;;;;;;;52.90;18.10;;;;;;;;;;5013273;28;20440;-63
2023/10/21 03:08:11;;;;;;;43.23;16.70;;;;;;;;;;5012868;28;20079;-65
2023/10/21 03:10:37;;;;;;;51.73;17.87;;;;;;;;;;5013957;28;20021;-64
2023/10/21 03:13:02;;;;;;;44.63;15.93;;;;;;;;;;5014189;28;20398;-64
2023/10/21 03:15:27;;;;;;;53.83;18.83;;;;;;;;;;5015854;28;20030;-66
2023/10/21 03:17:53;;;;;;;45.80;16.07;;;;;;;;;;5014869;28;20129;-64
2023/10/21 03:20:18;;;;;;;46.97;16.40;;;;;;;;;;5013844;28;20034;-64
2023/10/21 03:22:43;;;;;;;47.13;17.03;;;;;;;;;;5012378;28;20026;-63
2023/10/21 03:25:09;;;;;;;42.37;14.47;;;;;;;;;;5015641;28;20440;-63
2023/10/21 03:27:34;;;;;;;45.30;17.27;;;;;;;;;;5012910;28;20026;-64
2023/10/21 03:29:59;;;;;;;54.27;18.63;;;;;;;;;;5012510;28;20391;-65
2023/10/21 03:32:24;;;;;;;49.00;17.67;;;;;;;;;;5012499;28;20014;-63
2023/10/21 03:34:50;;;;;;;54.23;18.33;;;;;;;;;;5012245;28;20033;-63
2023/10/21 03:37:15;;;;;;;42.67;15.40;;;;;;;;;;5013242;28;20052;-62
2023/10/21 03:39:41;;;;;;;54.53;18.43;;;;;;;;;;5012061;28;20026;-63
2023/10/21 03:42:06;;;;;;;50.03;18.53;;;;;;;;;;5012183;28;20018;-66
2023/10/21 03:44:31;;;;;;;58.33;18.90;;;;;;;;;;5012462;28;20033;-63
2023/10/21 03:46:57;;;;;;;58.13;18.03;;;;;;;;;;5012436;28;20026;-66
2023/10/21 03:49:22;;;;;;;53.87;16.63;;;;;;;;;;5018521;28;20039;-63
2023/10/21 03:51:47;;;;;;;65.27;19.73;;;;;;;;;;5014251;28;20037;-65
2023/10/21 03:54:12;;;;;;;54.00;19.27;;;;;;;;;;5012006;28;20040;-64
2023/10/21 03:56:38;;;;;;;59.37;20.07;;;;;;;;;;5011943;28;20030;-65
2023/10/21 03:59:03;;;;;;;61.93;19.73;;;;;;;;;;5012409;28;20033;-63
2023/10/21 04:01:30;;;;;;;53.83;18.73;;;;;;;;;;5012373;28;20094;-64
2023/10/21 04:03:55;;;;;;;67.13;21.50;;;;;;;;;;5011917;28;20533;-65
2023/10/21 04:06:20;;;;;;;62.97;20.53;;;;;;;;;;5013899;28;20022;-65
2023/10/21 04:08:46;;;;;;;64.83;20.90;;;;;;;;;;5013181;28;20136;-66
2023/10/21 04:11:11;;;;;;;56.50;18.63;;;;;;;;;;5010741;28;20025;-63
2023/10/21 04:13:36;;;;;;;67.23;21.03;;;;;;;;;;5011602;28;20026;-65
2023/10/21 04:16:03;;;;;;;61.03;20.37;;;;;;;;;;5011766;28;20439;-64
2023/10/21 04:18:28;;;;;;;52.13;17.03;;;;;;;;;;5010587;28;20530;-64
2023/10/21 04:20:55;;;;;;;54.97;18.57;;;;;;;;;;5012973;28;20038;-63
2023/10/21 04:23:20;;;;;;;63.97;20.27;;;;;;;;;;5012941;28;20026;-64
2023/10/21 04:25:46;;;;;;;68.10;21.57;;;;;;;;;;5013374;28;20474;-65
2023/10/21 04:28:11;;;;;;;61.40;20.63;;;;;;;;;;5013930;28;20083;-65
2023/10/21 04:30:36;;;;;;;59.57;19.43;;;;;;;;;;5011544;28;20379;-63
2023/10/21 04:33:01;;;;;;;56.13;19.50;;;;;;;;;;5011833;28;20025;-65
2023/10/21 04:35:27;;;;;;;61.03;19.80;;;;;;;;;;5011052;28;20129;-66
2023/10/21 04:37:52;;;;;;;51.73;17.50;;;;;;;;;;5011535;28;20026;-63
2023/10/21 04:40:17;;;;;;;62.60;20.43;;;;;;;;;;5010437;28;20070;-63
2023/10/21 04:42:43;;;;;;;62.67;21.37;;;;;;;;;;5012317;28;20026;-63
2023/10/21 04:45:09;;;;;;;62.03;21.33;;;;;;;;;;5011433;28;20101;-63
2023/10/21 04:47:34;;;;;;;62.23;20.57;;;;;;;;;;5012210;28;20553;-64
2023/10/21 04:49:59;;;;;;;57.93;19.27;;;;;;;;;;5014626;28;20038;-65
2023/10/21 04:52:24;;;;;;;48.70;17.70;;;;;;;;;;5012263;28;20029;-62
2023/10/21 04:54:50;;;;;;;60.80;20.17;;;;;;;;;;5015116;28;20026;-65
2023/10/21 04:57:16;;;;;;;72.30;23.27;;;;;;;;;;5013902;28;20386;-65
2023/10/21 04:59:42;;;;;;;69.07;21.73;;;;;;;;;;5015107;28;20014;-65
2023/10/21 05:02:07;;;;;;;67.03;22.57;;;;;;;;;;5011913;28;20010;-64
2023/10/21 05:04:33;;;;;;;55.63;18.57;;;;;;;;;;5014623;28;20010;-64
2023/10/21 05:06:58;;;;;;;70.17;21.93;;;;;;;;;;5010018;28;20493;-64
2023/10/21 05:09:24;;;;;;;65.47;21.07;;;;;;;;;;5010687;28;20022;-63
2023/10/21 05:11:49;;;;;;;54.07;19.17;;;;;;;;;;5003923;28;20114;-61
2023/10/21 05:14:14;;;;;;;60.73;20.67;;;;;;;;;;5006408;28;20022;-63
2023/10/21 05:16:39;;;;;;;64.80;20.13;;;;;;;;;;5012320;28;20026;-64
2023/10/21 05:19:05;;;;;;;65.20;21.00;;;;;;;;;;5011013;28;20049;-65
2023/10/21 05:21:30;;;;;;;63.87;20.87;;;;;;;;;;5011351;28;20495;-65
2023/10/21 05:23:56;;;;;;;62.50;20.13;;;;;;;;;;5011299;28;20487;-63
2023/10/21 05:26:21;;;;;;;57.07;19.83;;;;;;;;;;5020609;28;20028;-62
2023/10/21 05:28:46;;;;;;;53.20;18.13;;;;;;;;;;5014270;28;20030;-62
2023/10/21 05:31:12;;;;;;;59.77;19.27;;;;;;;;;;5030280;28;20050;-62
2023/10/21 05:33:37;;;;;;;51.63;16.60;;;;;;;;;;5015970;28;20487;-63
2023/10/21 05:36:03;;;;;;;56.43;19.80;;;;;;;;;;5013868;28;20033;-63
2023/10/21 05:38:28;;;;;;;58.73;19.60;;;;;;;;;;5028090;28;20399;-63
2023/10/21 05:40:53;;;;;;;53.43;19.10;;;;;;;;;;5008853;28;20461;-64
2023/10/21 05:43:18;;;;;;;60.67;20.57;;;;;;;;;;5021693;28;20022;-65
2023/10/21 05:45:44;;;;;;;71.37;21.23;;;;;;;;;;5007005;28;20026;-66
2023/10/21 05:48:10;;;;;;;66.47;20.57;;;;;;;;;;5005573;28;20034;-72
2023/10/21 05:50:35;;;;;;;56.53;19.43;;;;;;;;;;5007977;28;20054;-72
2023/10/21 05:53:00;;;;;;;62.80;20.67;;;;;;;;;;5010246;28;20030;-72
2023/10/21 05:55:26;;;;;;;56.07;19.50;;;;;;;;;;5018889;28;20479;-72
2023/10/21 05:57:51;;;;;;;60.30;19.50;;;;;;;;;;5016151;28;20079;-72
2023/10/21 06:00:16;;;;;;;62.83;20.67;;;;;;;;;;5009463;28;20105;-73
2023/10/21 06:02:41;;;;;;;57.07;19.10;;;;;;;;;;5009471;28;20094;-72
2023/10/21 06:05:07;;;;;;;61.53;19.63;;;;;;;;;;5010635;28;20018;-72
2023/10/21 06:07:32;;;;;;;59.10;19.83;;;;;;;;;;5008847;28;20033;-72
2023/10/21 06:09:58;;;;;;;57.10;19.57;;;;;;;;;;5006410;28;20022;-73
2023/10/21 06:12:23;;;;;;;67.30;20.70;;;;;;;;;;5010566;28;20022;-72
2023/10/21 06:14:50;;;;;;;59.23;18.70;;;;;;;;;;5010614;28;20480;-73
2023/10/21 06:17:15;;;;;;;53.73;18.40;;;;;;;;;;4993010;28;20029;-71
2023/10/21 06:19:41;;;;;;;60.03;19.73;;;;;;;;;;5008558;28;20388;-71
2023/10/21 06:22:07;;;;;;;55.27;19.30;;;;;;;;;;5006617;28;20022;-72
2023/10/21 06:24:32;;;;;;;52.60;19.50;;;;;;;;;;5010474;28;20388;-72
2023/10/21 06:26:58;;;;;;;60.67;20.93;;;;;;;;;;5002199;28;20019;-72
2023/10/21 06:29:24;;;;;;;63.03;21.23;;;;;;;;;;5010338;28;20485;-72
2023/10/21 06:31:50;;;;;;;61.57;20.83;;;;;;;;;;5008463;28;20125;-73
2023/10/21 06:34:15;;;;;;;64.90;21.27;;;;;;;;;;5009774;28;20468;-73
2023/10/21 06:36:40;;;;;;;63.27;20.13;;;;;;;;;;5005314;28;20034;-71
2023/10/21 06:39:05;;;;;;;65.40;21.47;;;;;;;;;;5002916;28;20500;-71
2023/10/21 06:41:31;;;;;;;62.97;21.20;;;;;;;;;;5007408;28;20022;-72
2023/10/21 06:43:59;;;;;;;64.17;21.23;;;;;;;;;;5000175;28;20045;-72
2023/10/21 06:46:24;;;;;;;69.50;23.03;;;;;;;;;;4994998;28;20029;-71
2023/10/21 06:48:49;;;;;;;68.10;22.50;;;;;;;;;;5009941;28;20034;-71
2023/10/21 06:51:14;;;;;;;59.27;21.37;;;;;;;;;;5008289;28;20033;-71
2023/10/21 06:53:40;;;;;;;61.70;20.73;;;;;;;;;;4999907;28;20026;-71
2023/10/21 06:56:14;;;;;;;64.50;21.87;;;;;;;;;;5009857;28;20033;-71
2023/10/21 06:58:40;;;;;;;70.83;22.40;;;;;;;;;;5005599;28;20033;-66
2023/10/21 07:01:06;;;;;;;66.73;22.43;;;;;;;;;;5009612;28;20019;-66
2023/10/21 07:03:31;;;;;;;66.43;20.87;;;;;;;;;;5008432;28;20443;-66
2023/10/21 07:05:58;;;;;;;64.07;21.43;;;;;;;;;;5009701;28;20101;-66
2023/10/21 07:08:23;;;;;;;62.37;21.60;;;;;;;;;;5008004;28;20030;-66
2023/10/21 07:10:48;;;;;;;65.30;21.20;;;;;;;;;;5009987;28;20030;-67
2023/10/21 07:13:14;;;;;;;64.50;21.10;;;;;;;;;;5014209;28;20112;-66
2023/10/21 07:15:40;;;;;;;59.80;21.27;;;;;;;;;;5009830;28;20045;-66
2023/10/21 07:18:05;;;;;;;65.70;23.13;;;;;;;;;;5009575;28;20077;-66
2023/10/21 07:20:30;;;;;;;63.27;22.33;;;;;;;;;;5009707;28;20490;-66
2023/10/21 07:22:55;;;;;;;69.07;23.70;;;;;;;;;;5009918;28;20014;-67
2023/10/21 07:25:21;;;;;;;72.50;23.07;;;;;;;;;;5009743;28;20395;-66
2023/10/21 07:27:46;;;;;;;72.00;22.40;;;;;;;;;;5009205;28;20395;-67
2023/10/21 07:30:12;;;;;;;72.07;22.70;;;;;;;;;;5009832;28;20022;-68
2023/10/21 07:32:37;;;;;;;64.30;22.60;;;;;;;;;;5009922;28;20037;-68
2023/10/21 07:35:03;;;;;;;64.80;21.10;;;;;;;;;;5009602;28;20529;-68
2023/10/21 07:37:28;;;;;;;63.90;21.67;;;;;;;;;;5009460;28;20024;-68
2023/10/21 07:39:53;;;;;;;64.47;21.10;;;;;;;;;;5004728;28;20485;-68
2023/10/21 07:42:19;;;;;;;55.67;20.27;;;;;;;;;;4989831;28;20048;-67
2023/10/21 07:44:44;;;;;;;62.20;21.50;;;;;;;;;;4997115;28;20022;-68
2023/10/21 07:47:10;;;;;;;57.50;21.33;;;;;;;;;;5009508;28;20016;-68
2023/10/21 07:49:36;;;;;;;61.67;21.70;;;;;;;;;;5012878;28;20030;-66
2023/10/21 07:52:01;;;;;;;57.93;21.17;;;;;;;;;;5019566;28;20022;-68
2023/10/21 07:54:26;;;;;;;70.13;22.63;;;;;;;;;;5011185;28;20049;-68
2023/10/21 07:56:53;;;;;;;56.03;21.03;;;;;;;;;;5011960;28;20033;-67
2023/10/21 07:59:18;;;;;;;59.77;20.70;;;;;;;;;;5012391;28;20018;-68
2023/10/21 08:01:43;;;;;;;58.97;21.43;;;;;;;;;;5010756;28;20033;-68
2023/10/21 08:04:09;;;;;;;61.07;22.13;;;;;;;;;;5012258;28;20101;-67
2023/10/21 08:06:34;;;;;;;49.53;18.20;;;;;;;;;;5008840;28;20022;-67
2023/10/21 08:09:00;;;;;;;58.53;20.30;;;;;;;;;;5012346;28;20148;-68
2023/10/21 08:11:25;;;;;;;60.57;21.23;;;;;;;;;;5011311;28;20057;-68
2023/10/21 08:13:50;;;;;;;48.10;18.33;;;;;;;;;;5011299;28;20037;-67
2023/10/21 08:16:15;;;;;;;55.70;20.50;;;;;;;;;;5007492;28;20030;-68
2023/10/21 08:18:41;;;;;;;57.43;20.67;;;;;;;;;;5009553;28;20038;-68
2023/10/21 08:21:06;;;;;;;55.47;20.10;;;;;;;;;;5012005;28;20026;-68
2023/10/21 08:23:31;;;;;;;58.13;20.17;;;;;;;;;;5012467;28;20026;-67
2023/10/21 08:25:57;;;;;;;48.30;19.57;;;;;;;;;;5010072;28;20026;-68
2023/10/21 08:28:23;;;;;;;55.87;20.33;;;;;;;;;;5010427;28;20030;-69
2023/10/21 08:30:49;;;;;;;55.93;20.07;;;;;;;;;;5007058;28;20376;-67
2023/10/21 08:33:14;;;;;;;48.87;18.73;;;;;;;;;;5010811;28;20412;-68
2023/10/21 08:35:40;;;;;;;45.27;17.57;;;;;;;;;;5037361;28;20087;-65
2023/10/21 08:38:05;;;;;;;46.67;17.87;;;;;;;;;;4998336;28;20022;-66
2023/10/21 08:40:31;;;;;;;41.27;16.57;;;;;;;;;;5008755;28;20022;-66
2023/10/21 08:42:59;;;;;;;39.10;16.73;;;;;;;;;;5013382;28;20018;-65
2023/10/21 08:45:25;;;;;;;38.80;16.70;;;;;;;;;;5025781;28;20015;-65
2023/10/21 08:47:50;;;;;;;39.10;16.30;;;;;;;;;;5020090;28;20503;-65
2023/10/21 08:50:17;;;;;;;36.40;15.63;;;;;;;;;;5010583;28;20032;-66
2023/10/21 08:52:42;;;;;;;36.07;15.10;;;;;;;;;;5011937;28;20496;-65
2023/10/21 08:55:09;;;;;;;34.00;15.03;;;;;;;;;;5010488;28;20029;-66
2023/10/21 08:57:36;;;;;;;30.70;13.90;;;;;;;;;;5009761;28;20108;-64
2023/10/21 09:00:04;;;;;;;35.93;15.77;;;;;;;;;;5007121;28;20022;-65
2023/10/21 09:02:29;;;;;;;30.47;14.30;;;;;;;;;;5010061;28;20022;-65
2023/10/21 09:04:54;;;;;;;34.63;14.70;;;;;;;;;;5011673;28;20096;-65
2023/10/21 09:07:19;;;;;;;30.30;14.32;;;;;;;;;;5011527;28;20116;-65
2023/10/21 09:09:45;;;;;;;28.77;13.70;;;;;;;;;;5007366;28;20029;-64
2023/10/21 09:12:13;;;;;;;26.80;12.80;;;;;;;;;;4999741;28;20057;-65
2023/10/21 09:14:59;;;;;;;26.85;13.38;;;;;;;;;;5011629;28;20460;-65
2023/10/21 09:17:35;;;;;;;24.13;12.10;;;;;;;;;;5011364;28;20054;-65
2023/10/21 09:20:13;;;;;;;25.02;12.52;;;;;;;;;;5011465;28;20372;-66
2023/10/21 09:22:38;;;;;;;23.52;12.40;;;;;;;;;;5011631;28;20464;-67
2023/10/21 09:25:08;;;;;;;24.63;12.40;;;;;;;;;;5011241;28;20052;-66
2023/10/21 09:27:33;;;;;;;22.83;12.23;;;;;;;;;;5010977;28;20488;-67
2023/10/21 09:30:00;;;;;;;24.10;12.15;;;;;;;;;;5011776;28;20121;-64
2023/10/21 09:32:28;;;;;;;19.85;11.43;;;;;;;;;;5023082;28;20417;-66
2023/10/21 09:34:54;;;;;;;21.42;11.38;;;;;;;;;;5010710;28;20029;-67
2023/10/21 09:37:24;;;;;;;21.17;11.10;;;;;;;;;;5011124;28;20018;-65
2023/10/21 09:39:49;;;;;;;20.75;11.05;;;;;;;;;;5008538;28;20082;-66
2023/10/21 09:42:16;;;;;;;20.70;10.18;;;;;;;;;;5008891;28;20021;-67
2023/10/21 09:44:43;;;;;;;19.85;10.07;;;;;;;;;;5006650;28;20026;-66
2023/10/21 09:47:10;;;;;;;19.35;9.95;;;;;;;;;;5006266;28;20108;-66
2023/10/21 09:49:38;;;;;;;22.50;10.75;;;;;;;;;;5007906;28;20040;-66
2023/10/21 09:52:04;;;;;;;20.33;10.27;;;;;;;;;;5003906;28;20029;-66
2023/10/21 09:54:33;;;;;;;20.95;10.35;;;;;;;;;;5011191;28;20030;-67
2023/10/21 09:56:59;;;;;;;17.55;9.57;;;;;;;;;;5008939;28;20030;-67
2023/10/21 09:59:24;;;;;;;16.75;8.98;;;;;;;;;;5009166;28;20468;-66
2023/10/21 10:01:51;;;;;;;16.02;8.88;;;;;;;;;;5008963;28;20091;-67
2023/10/21 10:04:17;;;;;;;16.85;9.52;;;;;;;;;;5010445;28;20360;-67
2023/10/21 10:06:44;;;;;;;14.10;7.68;;;;;;;;;;5007679;28;20030;-66
2023/10/21 10:09:10;;;;;;;15.48;7.30;;;;;;;;;;5007471;28;20114;-68
2023/10/21 10:11:36;;;;;;;12.05;6.93;;;;;;;;;;4993901;28;20118;-65
2023/10/21 10:14:02;;;;;;;11.27;6.10;;;;;;;;;;5006389;28;20030;-66
2023/10/21 10:16:28;;;;;;;11.52;5.70;;;;;;;;;;5010586;28;20112;-64
2023/10/21 10:18:56;;;;;;;8.88;4.80;;;;;;;;;;5006774;28;20136;-66
2023/10/21 10:21:21;;;;;;;8.02;4.68;;;;;;;;;;5003325;28;20083;-65
2023/10/21 10:23:50;;;;;;;9.98;4.55;;;;;;;;;;5008317;28;20026;-66
2023/10/21 10:26:32;;;;;;;9.70;5.22;;;;;;;;;;5009933;28;20097;-66
2023/10/21 10:28:59;;;;;;;8.38;4.47;;;;;;;;;;5009449;28;20504;-73
2023/10/21 10:31:26;;;;;;;9.25;4.47;;;;;;;;;;5009800;28;20476;-74
2023/10/21 10:33:51;;;;;;;9.50;4.28;;;;;;;;;;5006975;28;20483;-73
2023/10/21 10:36:26;;;;;;;9.00;4.22;;;;;;;;;;5006659;28;20101;-74
2023/10/21 10:38:54;;;;;;;5.88;3.78;;;;;;;;;;5015201;28;20021;-73
2023/10/21 10:41:21;;;;;;;7.45;3.90;;;;;;;;;;5003481;28;20014;-73
2023/10/21 10:44:01;;;;;;;8.55;4.10;;;;;;;;;;5014124;28;20026;-73
2023/10/21 10:46:28;;;;;;;6.90;3.50;;;;;;;;;;5006479;28;20018;-74
2023/10/21 10:48:53;;;;;;;5.95;3.70;;;;;;;;;;5006881;28;20476;-73
2023/10/21 10:51:23;;;;;;;11.13;6.13;;;;;;;;;;5017680;28;20104;-72
2023/10/21 10:53:54;;;;;;;8.10;4.03;;;;;;;;;;5029649;28;20030;-71
2023/10/21 10:56:20;;;;;;;10.68;4.95;;;;;;;;;;5007500;28;20476;-72
2023/10/21 10:58:48;;;;;;;6.25;3.42;;;;;;;;;;5011948;28;20109;-72
2023/10/21 11:01:26;;;;;;;6.80;3.60;;;;;;;;;;5008430;28;20022;-72
2023/10/21 11:03:59;;;;;;;7.28;3.10;;;;;;;;;;5008285;28;20545;-71
2023/10/21 11:06:29;;;;;;;10.23;3.10;;;;;;;;;;5002542;28;20068;-72
2023/10/21 11:08:54;;;;;;;6.07;3.30;;;;;;;;;;4990483;28;20034;-73
2023/10/21 11:11:19;;;;;;;3.88;2.08;;;;;;;;;;5000959;28;20391;-73
2023/10/21 11:13:45;;;;;;;4.07;2.33;;;;;;;;;;5004614;28;20028;-72
2023/10/21 11:16:11;;;;;;;4.13;2.10;;;;;;;;;;5008558;28;20045;-72
2023/10/21 11:18:36;;;;;;;3.58;2.05;;;;;;;;;;5003741;28;20048;-72
2023/10/21 11:21:02;;;;;;;4.25;1.83;;;;;;;;;;5012970;28;20026;-71
2023/10/21 11:23:28;;;;;;;3.65;1.50;;;;;;;;;;5013146;28;20349;-72
2023/10/21 11:25:54;;;;;;;2.65;1.50;;;;;;;;;;5013738;28;20014;-72
2023/10/21 11:28:19;;;;;;;3.13;1.38;;;;;;;;;;5022954;28;20494;-70
2023/10/21 11:30:45;;;;;;;3.95;1.52;;;;;;;;;;5014814;28;20029;-70
2023/10/21 11:33:11;;;;;;;2.80;1.58;;;;;;;;;;5022177;28;20052;-72
2023/10/21 11:35:39;;;;;;;3.00;1.45;;;;;;;;;;5013027;28;20033;-71
2023/10/21 11:38:05;;;;;;;2.42;1.30;;;;;;;;;;5012438;28;20022;-71
2023/10/21 11:40:32;;;;;;;3.03;1.50;;;;;;;;;;5027588;28;20022;-70
2023/10/21 11:42:58;;;;;;;3.35;1.63;;;;;;;;;;5012892;28;20026;-73
2023/10/21 11:45:25;;;;;;;2.88;1.65;;;;;;;;;;5011436;28;20467;-72
2023/10/21 11:47:53;;;;;;;2.70;1.70;;;;;;;;;;4996796;28;20113;-70
2023/10/21 11:50:19;;;;;;;3.80;1.80;;;;;;;;;;5004866;28;20424;-70
2023/10/21 11:52:44;;;;;;;2.80;1.52;;;;;;;;;;5014827;28;20037;-72
2023/10/21 12:13:55;;;;;;;3.25;1.48;;;;;;;;;;5012084;28;20036;-73
2023/10/21 12:22:13;;;;;;;2.60;1.20;;;;;;;;;;5008610;28;20024;-69
2023/10/21 12:40:37;;;;;;;7.20;1.40;;;;;;;;;;5012765;28;20042;-71
2023/10/21 12:45:46;;;;;;;2.88;1.40;;;;;;;;;;4937622;29;20473;-72
2023/10/21 12:48:21;;;;;;;2.88;1.40;;;;;;;;;;4934130;28;20111;-66
2023/10/21 12:50:49;;;;;;;3.80;1.92;;;;;;;;;;4931781;28;20043;-67
2023/10/21 12:53:15;;;;;;;4.13;1.52;;;;;;;;;;4927027;29;20533;-66
2023/10/21 12:55:40;;;;;;;4.80;1.33;;;;;;;;;;4930893;29;20038;-66
2023/10/21 12:58:06;;;;;;;2.83;1.25;;;;;;;;;;4931020;29;20082;-63
2023/10/21 13:00:31;;;;;;;2.88;1.30;;;;;;;;;;4922772;29;20475;-67
2023/10/21 13:02:57;;;;;;;2.28;1.10;;;;;;;;;;4930149;29;20027;-67
2023/10/21 13:05:22;;;;;;;2.47;1.13;;;;;;;;;;4934008;29;20035;-65
2023/10/21 13:07:47;;;;;;;2.45;1.05;;;;;;;;;;4933141;29;20034;-64
2023/10/21 13:10:13;;;;;;;1.85;1.00;;;;;;;;;;4943446;29;20101;-66
2023/10/21 13:12:39;;;;;;;2.83;1.30;;;;;;;;;;4946595;28;20019;-66
2023/10/21 13:15:09;;;;;;;2.13;1.05;;;;;;;;;;4929786;29;20106;-66
2023/10/21 13:17:34;;;;;;;2.80;1.10;;;;;;;;;;4983487;28;20050;-65
2023/10/21 13:19:59;;;;;;;2.25;0.93;;;;;;;;;;5010693;28;20464;-64
2023/10/21 13:22:25;;;;;;;1.88;1.00;;;;;;;;;;5011102;28;20054;-64
2023/10/21 13:24:50;;;;;;;2.88;1.00;;;;;;;;;;5015110;28;20060;-65
2023/10/21 13:27:15;;;;;;;1.88;0.90;;;;;;;;;;5030519;28;20070;-65
2023/10/21 13:29:40;;;;;;;3.50;0.80;;;;;;;;;;5030326;28;20040;-65
2023/10/21 13:32:07;;;;;;;3.50;0.90;;;;;;;;;;5016300;28;20026;-66
2023/10/21 13:34:33;;;;;;;2.53;1.00;;;;;;;;;;5011077;28;20475;-66
2023/10/21 13:36:58;;;;;;;2.20;0.82;;;;;;;;;;5016910;28;20055;-65
2023/10/21 13:39:23;;;;;;;1.70;0.80;;;;;;;;;;5023813;28;20049;-65
2023/10/21 13:41:49;;;;;;;2.25;0.73;;;;;;;;;;5010086;28;20022;-65
2023/10/21 13:44:14;;;;;;;1.90;0.77;;;;;;;;;;5009640;28;20033;-66
2023/10/21 13:46:39;;;;;;;3.30;0.90;;;;;;;;;;5010675;28;20014;-66
2023/10/21 13:49:14;;;;;;;2.25;0.52;;;;;;;;;;5007625;28;20479;-65
2023/10/21 13:51:40;;;;;;;1.70;0.80;;;;;;;;;;5011583;28;20025;-65
2023/10/21 13:54:09;;;;;;;2.38;0.80;;;;;;;;;;5015713;28;20025;-66
2023/10/21 13:56:34;;;;;;;2.40;0.80;;;;;;;;;;5008390;28;20078;-64
2023/10/21 13:58:59;;;;;;;2.10;0.65;;;;;;;;;;5023498;28;20021;-66
2023/10/21 14:01:25;;;;;;;1.27;0.60;;;;;;;;;;5007875;28;20537;-65
2023/10/21 14:03:50;;;;;;;2.63;0.65;;;;;;;;;;5009763;28;20459;-65
2023/10/21 14:06:19;;;;;;;2.00;0.70;;;;;;;;;;5008949;28;20070;-66
2023/10/21 14:08:44;;;;;;;2.10;0.80;;;;;;;;;;5009917;28;20026;-66
2023/10/21 14:11:10;;;;;;;1.65;0.70;;;;;;;;;;5011748;28;20026;-65
2023/10/21 14:13:35;;;;;;;3.47;0.80;;;;;;;;;;5003473;28;20021;-65
2023/10/21 14:16:09;;;;;;;2.17;0.50;;;;;;;;;;5010244;28;20078;-64
2023/10/21 14:18:34;;;;;;;2.72;0.68;;;;;;;;;;5008788;28;20496;-65
2023/10/21 14:21:00;;;;;;;2.67;0.77;;;;;;;;;;5012981;28;20026;-65
2023/10/21 14:23:26;;;;;;;2.13;0.70;;;;;;;;;;4992941;28;20023;-65
2023/10/21 14:25:55;;;;;;;2.15;0.60;;;;;;;;;;5008812;28;20511;-65
2023/10/21 14:28:21;;;;;;;1.77;0.65;;;;;;;;;;5010236;28;20018;-66
2023/10/21 14:30:48;;;;;;;2.53;0.70;;;;;;;;;;5001904;28;20037;-66
2023/10/21 14:33:15;;;;;;;2.90;0.65;;;;;;;;;;5007673;28;20026;-66
2023/10/21 14:35:41;;;;;;;2.15;0.60;;;;;;;;;;5009458;28;20037;-66
2023/10/21 14:38:07;;;;;;;7.18;0.80;;;;;;;;;;4999375;28;20026;-66
2023/10/21 14:40:32;;;;;;;0.82;0.57;;;;;;;;;;5005891;28;20025;-66
2023/10/21 14:42:58;;;;;;;2.28;0.80;;;;;;;;;;5007041;28;20068;-65
2023/10/21 14:45:23;;;;;;;1.52;0.68;;;;;;;;;;5009458;28;20084;-66
2023/10/21 14:47:48;;;;;;;1.45;0.60;;;;;;;;;;5013683;28;20044;-66
2023/10/21 14:50:13;;;;;;;3.17;1.00;;;;;;;;;;5010246;28;20064;-65
2023/10/21 14:52:39;;;;;;;1.15;0.60;;;;;;;;;;4998477;28;20072;-63
2023/10/21 14:55:06;;;;;;;2.30;0.70;;;;;;;;;;5003869;28;20052;-63
2023/10/21 14:57:31;;;;;;;2.83;0.70;;;;;;;;;;5012120;28;20026;-65
2023/10/21 14:59:58;;;;;;;3.20;0.95;;;;;;;;;;5012953;28;20399;-65
2023/10/21 15:02:23;;;;;;;3.92;0.80;;;;;;;;;;5011489;28;20030;-62